Time;durP1;ratioP1;P1;durP2;ratioP2;P2;SDS_P1;SDS_P2;PMS_P1;PMS_P2;Temp;Humidity;BMP_temperature;BMP_pressure;BME280_temperature;BME280_humidity;BME280_pressure;Samples;Min_cycle;Max_cycle;Signal;HPM_P1;HPM_P2
2024/01/15 00:00:04;;;;;;;73.97;66.65;;;3.90;85.00;;;;;;12504305;28;20033;-74
2024/01/15 00:06:12;;;;;;;60.28;54.35;;;4.00;85.00;;;;;;12504365;28;20032;-74
2024/01/15 00:12:14;;;;;;;80.85;73.97;;;4.00;85.00;;;;;;12470333;28;20048;-74
2024/01/15 00:18:15;;;;;;;75.38;68.25;;;3.90;85.00;;;;;;12504057;28;20438;-74
2024/01/15 00:24:17;;;;;;;58.08;52.67;;;3.90;85.00;;;;;;12504050;28;20030;-74
2024/01/15 00:30:19;;;;;;;59.17;52.22;;;3.90;85.10;;;;;;12486128;28;20033;-74
2024/01/15 00:36:20;;;;;;;54.53;49.25;;;3.90;85.30;;;;;;12503558;28;20040;-74
2024/01/15 00:42:22;;;;;;;73.88;68.03;;;3.90;85.20;;;;;;12487333;28;20457;-74
2024/01/15 00:48:24;;;;;;;64.90;58.72;;;4.00;85.20;;;;;;12518616;28;20036;-74
2024/01/15 00:54:26;;;;;;;56.60;51.50;;;4.00;85.20;;;;;;12485588;28;20029;-74
2024/01/15 01:00:27;;;;;;;76.03;69.68;;;4.00;85.20;;;;;;12505287;28;20037;-74
2024/01/15 01:06:29;;;;;;;70.35;64.13;;;4.00;85.20;;;;;;12511752;28;20034;-74
2024/01/15 01:12:30;;;;;;;62.53;57.40;;;4.00;85.10;;;;;;12493872;28;20044;-74
2024/01/15 01:18:32;;;;;;;59.20;53.92;;;3.90;85.10;;;;;;12511978;28;20029;-74
2024/01/15 01:24:33;;;;;;;64.50;59.10;;;3.90;85.10;;;;;;12493622;28;20041;-74
2024/01/15 01:30:35;;;;;;;67.28;61.38;;;3.90;85.20;;;;;;12493101;28;20034;-74
2024/01/15 01:36:36;;;;;;;54.22;49.17;;;3.90;85.30;;;;;;12510383;28;20033;-74
2024/01/15 01:42:38;;;;;;;56.15;50.45;;;3.90;85.10;;;;;;12510235;28;20033;-74
2024/01/15 01:48:39;;;;;;;61.08;55.75;;;3.90;85.20;;;;;;12509917;28;20029;-77
2024/01/15 01:54:41;;;;;;;67.28;61.45;;;4.00;85.20;;;;;;12476380;28;20045;-76
2024/01/15 02:00:43;;;;;;;92.45;82.85;;;4.10;85.20;;;;;;12509263;28;20029;-77
2024/01/15 02:06:45;;;;;;;69.10;62.03;;;4.10;85.20;;;;;;12491337;28;20064;-76
2024/01/15 02:12:48;;;;;;;61.38;55.38;;;4.20;85.20;;;;;;12473948;28;20163;-76
2024/01/15 02:18:49;;;;;;;59.70;54.13;;;4.20;85.10;;;;;;12490826;28;20021;-77
2024/01/15 02:24:51;;;;;;;82.10;74.28;;;4.10;85.10;;;;;;12508135;28;20037;-76
2024/01/15 02:30:53;;;;;;;72.13;64.30;;;4.20;85.50;;;;;;12507739;28;20037;-77
2024/01/15 02:36:54;;;;;;;50.80;45.88;;;4.30;85.30;;;;;;12507536;28;20445;-77
2024/01/15 02:42:55;;;;;;;75.28;68.38;;;4.20;85.10;;;;;;12507294;28;20038;-76
2024/01/15 02:48:57;;;;;;;93.03;84.38;;;4.20;85.50;;;;;;12507058;28;20037;-76
2024/01/15 02:54:59;;;;;;;72.05;65.45;;;4.20;85.30;;;;;;12489085;28;20335;-77
2024/01/15 03:01:00;;;;;;;89.68;81.75;;;4.40;85.60;;;;;;12489303;28;20037;-77
2024/01/15 03:07:02;;;;;;;97.03;88.72;;;4.70;85.40;;;;;;12506944;28;20033;-77
2024/01/15 03:13:04;;;;;;;98.18;90.32;;;4.90;85.10;;;;;;12488364;28;20029;-76
2024/01/15 03:19:05;;;;;;;97.63;89.40;;;5.00;85.10;;;;;;12505947;28;20387;-76
2024/01/15 03:25:07;;;;;;;102.18;93.78;;;5.10;84.80;;;;;;12505253;28;20438;-77
2024/01/15 03:31:09;;;;;;;96.95;88.15;;;4.90;84.70;;;;;;12505233;28;20460;-77
2024/01/15 03:37:10;;;;;;;73.50;66.75;;;4.90;84.90;;;;;;12505058;28;20040;-77
2024/01/15 03:43:12;;;;;;;68.75;62.63;;;4.70;84.60;;;;;;12504956;28;20041;-77
2024/01/15 03:49:13;;;;;;;80.43;72.03;;;4.40;84.90;;;;;;12504697;28;20037;-77
2024/01/15 03:55:15;;;;;;;81.03;72.78;;;4.20;85.20;;;;;;12486944;28;20350;-74
2024/01/15 04:01:17;;;;;;;92.65;84.63;;;4.40;85.40;;;;;;12486821;28;20044;-74
2024/01/15 04:07:18;;;;;;;85.45;78.25;;;4.80;85.40;;;;;;12486697;28;20354;-74
2024/01/15 04:13:20;;;;;;;95.97;86.32;;;4.90;84.70;;;;;;12486429;28;20353;-74
2024/01/15 04:19:22;;;;;;;86.15;77.88;;;4.80;85.10;;;;;;12486394;28;20056;-76
2024/01/15 04:25:23;;;;;;;107.28;98.18;;;5.00;84.70;;;;;;12486302;28;20537;-76
2024/01/15 04:31:26;;;;;;;95.97;88.30;;;5.20;84.60;;;;;;12503677;28;20350;-77
2024/01/15 04:37:28;;;;;;;76.18;68.35;;;5.10;84.20;;;;;;12509233;28;20040;-77
2024/01/15 04:43:30;;;;;;;101.75;92.45;;;5.00;84.60;;;;;;12495350;28;20349;-76
2024/01/15 04:49:31;;;;;;;101.07;92.00;;;5.10;84.30;;;;;;12512580;28;20026;-77
2024/01/15 04:55:33;;;;;;;97.90;89.20;;;5.30;84.00;;;;;;12494705;28;20030;-76
2024/01/15 05:01:35;;;;;;;100.80;93.15;;;5.40;83.70;;;;;;12512099;28;20037;-77
2024/01/15 05:07:37;;;;;;;83.47;76.10;;;5.50;83.40;;;;;;12494221;28;20033;-77
2024/01/15 05:13:38;;;;;;;92.35;84.95;;;5.00;83.30;;;;;;12511528;28;20030;-76
2024/01/15 05:19:40;;;;;;;99.25;90.18;;;4.70;84.20;;;;;;12511309;28;20429;-77
2024/01/15 05:25:41;;;;;;;104.38;94.55;;;4.80;84.20;;;;;;12493467;28;20327;-77
2024/01/15 05:31:44;;;;;;;97.13;88.88;;;5.10;83.80;;;;;;12510726;28;20033;-77
2024/01/15 05:37:48;;;;;;;96.25;88.28;;;5.20;83.30;;;;;;12510491;28;20025;-77
2024/01/15 05:43:55;;;;;;;102.68;93.53;;;5.30;82.90;;;;;;12510192;28;20029;-77
2024/01/15 05:49:58;;;;;;;66.68;60.58;;;5.30;82.80;;;;;;12492420;28;20044;-78
2024/01/15 05:56:01;;;;;;;75.80;69.07;;;5.20;82.40;;;;;;12491998;28;20037;-77
2024/01/15 06:02:04;;;;;;;66.80;59.95;;;4.70;82.80;;;;;;12509360;28;20037;-77
2024/01/15 06:08:08;;;;;;;88.40;79.95;;;4.60;83.60;;;;;;12509093;28;20036;-77
2024/01/15 06:14:13;;;;;;;71.43;64.72;;;4.70;83.20;;;;;;12508719;28;20426;-77
2024/01/15 06:20:15;;;;;;;60.20;54.53;;;4.90;82.90;;;;;;12508461;28;20025;-77
2024/01/15 06:26:16;;;;;;;90.68;83.03;;;4.90;82.30;;;;;;12474792;28;20048;-77
2024/01/15 06:32:19;;;;;;;83.13;75.97;;;4.80;82.90;;;;;;12507410;28;20036;-77
2024/01/15 06:38:21;;;;;;;77.55;69.45;;;5.00;82.70;;;;;;12507233;28;20037;-77
2024/01/15 06:44:23;;;;;;;90.25;81.93;;;4.80;82.80;;;;;;12490370;28;20318;-77
2024/01/15 06:50:25;;;;;;;62.17;56.20;;;4.70;82.50;;;;;;12507086;28;20037;-77
2024/01/15 06:56:27;;;;;;;81.00;73.85;;;4.40;83.20;;;;;;12514400;23;20362;-77
2024/01/15 07:02:29;;;;;;;66.82;60.95;;;4.50;83.10;;;;;;12488848;28;20029;-77
2024/01/15 07:08:31;;;;;;;70.15;64.22;;;4.40;83.10;;;;;;12506065;28;20029;-76
2024/01/15 07:14:32;;;;;;;60.85;55.03;;;4.30;83.40;;;;;;12488282;28;20045;-76
2024/01/15 07:20:34;;;;;;;60.75;55.30;;;4.20;83.60;;;;;;12488238;28;20034;-76
2024/01/15 07:26:37;;;;;;;61.65;55.75;;;4.50;83.90;;;;;;12488156;28;20025;-76
2024/01/15 07:32:40;;;;;;;96.82;87.47;;;4.50;83.60;;;;;;12487483;28;20348;-76
2024/01/15 07:38:44;;;;;;;83.25;76.85;;;4.80;84.00;;;;;;12501719;28;20034;-76
2024/01/15 07:44:47;;;;;;;99.30;90.80;;;4.80;83.20;;;;;;12504883;28;20044;-76
2024/01/15 07:50:51;;;;;;;96.00;87.28;;;4.70;83.90;;;;;;12470583;28;20042;-76
2024/01/15 07:57:00;;;;;;;71.82;65.35;;;4.90;83.70;;;;;;12486654;28;20049;-76
2024/01/15 08:03:02;;;;;;;68.22;61.78;;;5.10;83.70;;;;;;12486720;28;20026;-76
2024/01/15 08:09:05;;;;;;;68.63;62.53;;;5.00;83.50;;;;;;12487542;28;20064;-76
2024/01/15 08:15:10;;;;;;;60.55;54.88;;;4.60;83.70;;;;;;12514318;28;20041;-76
2024/01/15 08:21:12;;;;;;;68.20;61.45;;;4.40;83.80;;;;;;12514560;28;20036;-75
2024/01/15 08:27:14;;;;;;;56.28;51.00;;;4.20;84.10;;;;;;12513763;28;20029;-76
2024/01/15 08:33:16;;;;;;;61.67;55.83;;;4.30;84.50;;;;;;12528771;28;20044;-76
2024/01/15 08:39:19;;;;;;;60.13;54.45;;;4.20;84.30;;;;;;12495358;28;20037;-76
2024/01/15 08:45:23;;;;;;;51.53;46.90;;;4.20;84.30;;;;;;12495332;28;20396;-76
2024/01/15 08:51:27;;;;;;;74.00;67.97;;;4.30;84.70;;;;;;12495567;28;20056;-76
2024/01/15 08:57:30;;;;;;;60.83;55.47;;;4.60;84.80;;;;;;12511976;28;20044;-76
2024/01/15 09:03:33;;;;;;;89.20;80.40;;;4.60;84.50;;;;;;12511985;28;20025;-76
2024/01/15 09:09:36;;;;;;;69.85;64.18;;;4.60;84.70;;;;;;12493647;28;20041;-76
2024/01/15 09:15:38;;;;;;;65.18;59.05;;;4.80;85.00;;;;;;12512007;28;20033;-76
2024/01/15 09:21:40;;;;;;;72.47;66.50;;;4.90;84.20;;;;;;12510274;28;20365;-76
2024/01/15 09:27:42;;;;;;;82.03;75.18;;;4.70;84.40;;;;;;12491752;28;20041;-76
2024/01/15 09:33:44;;;;;;;90.28;82.40;;;5.00;84.60;;;;;;12510215;28;20040;-76
2024/01/15 09:39:46;;;;;;;71.65;65.90;;;5.00;84.80;;;;;;12510248;28;20029;-76
2024/01/15 09:45:49;;;;;;;82.20;76.03;;;5.10;84.60;;;;;;12492513;28;20453;-76
2024/01/15 09:51:52;;;;;;;71.15;65.72;;;5.20;84.70;;;;;;12509734;28;20030;-76
2024/01/15 09:57:55;;;;;;;98.95;91.05;;;5.40;85.20;;;;;;12509871;28;20052;-76
2024/01/15 10:04:06;;;;;;;82.93;75.97;;;5.40;84.20;;;;;;12491580;28;20457;-76
2024/01/15 10:10:08;;;;;;;81.07;75.03;;;5.40;84.80;;;;;;12491357;28;20040;-76
2024/01/15 10:16:11;;;;;;;82.72;74.57;;;5.40;84.70;;;;;;12523890;28;20037;-76
2024/01/15 10:22:15;;;;;;;105.40;95.75;;;5.30;84.50;;;;;;12507235;28;20041;-75
2024/01/15 10:28:19;;;;;;;95.15;87.30;;;5.30;83.90;;;;;;12490911;28;20042;-75
2024/01/15 10:34:21;;;;;;;120.75;110.00;;;5.30;84.10;;;;;;12489574;28;20041;-76
2024/01/15 10:40:23;;;;;;;95.75;87.85;;;5.40;84.40;;;;;;12507720;28;20032;-76
2024/01/15 10:46:26;;;;;;;81.32;74.57;;;5.50;84.10;;;;;;12522650;28;20040;-76
2024/01/15 10:52:30;;;;;;;97.35;89.75;;;5.60;84.20;;;;;;12506080;28;20133;-76
2024/01/15 10:58:34;;;;;;;81.45;74.97;;;5.80;84.40;;;;;;12506600;28;20037;-76
2024/01/15 11:04:36;;;;;;;89.13;79.75;;;6.10;84.80;;;;;;12507254;28;20030;-76
2024/01/15 11:10:41;;;;;;;108.15;100.90;;;6.40;84.00;;;;;;12522137;28;20438;-76
2024/01/15 11:17:05;;;;;;;94.85;87.45;;;6.40;84.40;;;;;;12505919;28;20052;-77
2024/01/15 11:23:08;;;;;;;118.40;109.72;;;6.20;84.00;;;;;;12505672;28;20037;-76
2024/01/15 11:29:26;;;;;;;89.63;81.65;;;6.20;84.00;;;;;;12505442;28;20036;-76
2024/01/15 11:35:49;;;;;;;106.32;97.68;;;6.30;84.00;;;;;;12505166;28;20029;-76
2024/01/15 11:41:51;;;;;;;112.93;103.55;;;6.20;83.60;;;;;;12487270;28;20030;-76
2024/01/15 11:48:11;;;;;;;97.35;89.50;;;6.20;83.70;;;;;;12520006;28;20033;-76
2024/01/15 11:54:15;;;;;;;112.30;103.85;;;6.30;83.90;;;;;;12504222;28;20022;-73
2024/01/15 12:00:17;;;;;;;95.80;88.70;;;6.50;84.30;;;;;;12482184;28;20042;-74
2024/01/15 12:06:19;;;;;;;120.20;109.95;;;6.50;83.90;;;;;;12512287;28;20029;-74
2024/01/15 12:12:59;;;;;;;114.85;106.80;;;6.50;83.70;;;;;;12491709;28;20030;-73
2024/01/15 12:19:01;;;;;;;104.03;95.95;;;6.30;83.80;;;;;;12566374;28;20335;-74
2024/01/15 12:25:03;;;;;;;81.20;74.68;;;6.40;84.90;;;;;;12519344;28;20040;-74
2024/01/15 12:31:05;;;;;;;102.35;94.88;;;6.90;84.20;;;;;;12553248;28;20464;-74
2024/01/15 12:37:08;;;;;;;111.47;103.25;;;7.20;84.00;;;;;;12552740;28;20055;-73
2024/01/15 12:43:10;;;;;;;135.93;126.80;;;7.20;83.80;;;;;;12535415;28;20025;-73
2024/01/15 12:49:13;;;;;;;142.90;134.60;;;7.40;83.90;;;;;;12535532;28;20037;-73
2024/01/15 12:55:15;;;;;;;115.68;108.45;;;7.40;84.00;;;;;;12553618;28;20032;-73
2024/01/15 13:01:17;;;;;;;80.43;73.25;;;7.60;84.50;;;;;;12561819;28;20036;-73
2024/01/15 13:07:19;;;;;;;89.47;82.18;;;7.70;83.60;;;;;;12561302;28;20417;-73
2024/01/15 13:13:39;;;;;;;71.72;65.88;;;7.70;84.10;;;;;;12543414;28;20087;-73
2024/01/15 13:19:40;;;;;;;106.63;99.28;;;7.80;83.60;;;;;;12560919;28;20033;-73
2024/01/15 13:25:43;;;;;;;70.13;63.78;;;7.70;82.40;;;;;;12542852;28;20063;-74
2024/01/15 13:31:46;;;;;;;64.93;58.90;;;7.70;83.30;;;;;;12560787;28;20021;-73
2024/01/15 13:37:47;;;;;;;100.78;93.53;;;7.60;83.00;;;;;;12560192;28;20029;-73
2024/01/15 13:43:50;;;;;;;118.70;111.10;;;7.60;83.10;;;;;;12541698;28;20138;-74
2024/01/15 13:50:10;;;;;;;65.35;59.60;;;8.00;83.80;;;;;;12541668;28;20037;-74
2024/01/15 13:56:12;;;;;;;88.78;83.05;;;8.10;83.60;;;;;;12541774;28;20037;-74
2024/01/15 14:02:14;;;;;;;76.15;69.72;;;8.30;83.60;;;;;;12553921;28;20358;-74
2024/01/15 14:08:16;;;;;;;73.00;66.85;;;8.30;84.00;;;;;;12491585;28;20044;-76
2024/01/15 14:14:27;;;;;;;40.67;36.97;;;8.40;84.30;;;;;;12508421;28;20042;-76
2024/01/15 14:20:29;;;;;;;59.55;54.65;;;8.40;84.00;;;;;;12508363;28;20326;-76
2024/01/15 14:26:31;;;;;;;63.53;58.22;;;8.50;84.60;;;;;;12474274;28;20350;-76
2024/01/15 14:32:33;;;;;;;78.57;72.03;;;8.90;84.10;;;;;;12507658;28;20037;-76
2024/01/15 14:38:35;;;;;;;79.15;73.80;;;9.10;84.70;;;;;;12507686;28;20037;-76
2024/01/15 14:44:38;;;;;;;86.05;80.38;;;9.20;84.50;;;;;;12508002;28;20056;-76
2024/01/15 14:50:40;;;;;;;63.47;58.83;;;9.30;84.50;;;;;;12507088;28;20033;-76
2024/01/15 14:56:45;;;;;;;54.30;49.88;;;9.10;84.70;;;;;;12500241;22;20805;-76
2024/01/15 15:02:48;;;;;;;81.13;75.50;;;8.90;84.90;;;;;;12655609;28;20044;-76
2024/01/15 15:08:49;;;;;;;58.38;54.05;;;8.80;84.70;;;;;;12621099;28;20448;-74
2024/01/15 15:14:51;;;;;;;88.10;82.28;;;8.50;84.60;;;;;;12655476;28;20032;-76
2024/01/15 15:20:54;;;;;;;52.75;48.40;;;8.50;85.70;;;;;;12656899;28;20054;-76
2024/01/15 15:26:56;;;;;;;51.97;47.38;;;8.90;85.30;;;;;;12636941;28;20048;-76
2024/01/15 15:32:58;;;;;;;80.68;74.10;;;8.90;84.90;;;;;;12654644;28;20024;-74
2024/01/15 15:39:00;;;;;;;66.20;61.05;;;8.80;85.30;;;;;;12636463;28;20028;-74
2024/01/15 15:45:06;;;;;;;68.25;62.08;;;8.80;85.10;;;;;;12654315;28;20451;-76
2024/01/15 15:51:11;;;;;;;54.03;45.47;;;9.00;84.80;;;;;;12636559;28;20046;-75
2024/01/15 15:57:12;;;;;;;83.72;76.80;;;9.00;84.50;;;;;;12636176;28;20044;-76
2024/01/15 16:03:14;;;;;;;134.38;125.97;;;8.90;84.00;;;;;;12654627;28;20035;-76
2024/01/15 16:09:16;;;;;;;146.98;137.48;;;8.80;84.10;;;;;;12635887;28;20032;-75
2024/01/15 16:15:20;;;;;;;84.00;77.15;;;8.70;83.60;;;;;;12636380;28;20040;-76
2024/01/15 16:21:21;;;;;;;107.80;99.70;;;8.70;83.60;;;;;;12653505;28;20466;-76
2024/01/15 16:27:23;;;;;;;76.07;68.25;;;8.70;83.30;;;;;;12635429;28;20363;-76
2024/01/15 16:33:25;;;;;;;108.25;100.38;;;8.70;82.80;;;;;;12659000;28;20032;-76
2024/01/15 16:39:26;;;;;;;80.65;73.82;;;8.70;82.60;;;;;;12644967;28;20036;-74
2024/01/15 16:45:28;;;;;;;149.98;140.50;;;8.70;82.50;;;;;;12644930;28;20462;-74
2024/01/15 16:51:30;;;;;;;91.75;84.95;;;8.70;82.40;;;;;;12636680;28;20040;-77
2024/01/15 16:57:32;;;;;;;103.75;95.55;;;8.40;82.20;;;;;;12627200;28;20040;-76
2024/01/15 17:03:34;;;;;;;107.25;99.85;;;8.00;82.80;;;;;;12660907;28;20040;-77
2024/01/15 17:09:39;;;;;;;127.25;118.40;;;7.90;82.90;;;;;;12596660;28;20028;-77
2024/01/15 17:15:41;;;;;;;121.47;112.82;;;7.90;82.70;;;;;;12610866;28;20036;-76
2024/01/15 17:22:06;;;;;;;81.95;74.32;;;7.80;82.60;;;;;;12592794;28;20037;-74
2024/01/15 17:28:08;;;;;;;92.38;83.72;;;7.70;82.70;;;;;;12612775;28;20032;-74
2024/01/15 17:34:10;;;;;;;89.80;81.97;;;7.80;82.40;;;;;;12642275;28;20036;-74
2024/01/15 17:40:12;;;;;;;91.07;83.47;;;7.80;81.90;;;;;;12660444;28;20290;-74
2024/01/15 17:46:14;;;;;;;80.30;72.22;;;8.00;82.00;;;;;;12657146;28;20031;-74
2024/01/15 17:52:17;;;;;;;105.70;96.63;;;7.90;82.20;;;;;;12659453;28;20047;-77
2024/01/15 17:58:19;;;;;;;95.70;86.10;;;7.80;82.00;;;;;;12641269;28;20039;-77
2024/01/15 18:04:22;;;;;;;100.32;91.00;;;7.70;81.80;;;;;;12652876;28;20036;-76
2024/01/15 18:10:23;;;;;;;85.72;76.07;;;7.70;81.40;;;;;;12608833;28;20032;-77
2024/01/15 18:16:25;;;;;;;95.45;87.63;;;7.60;81.20;;;;;;12608059;28;20095;-76
2024/01/15 18:22:27;;;;;;;101.20;92.50;;;7.50;81.30;;;;;;12608326;28;20039;-77
2024/01/15 18:28:28;;;;;;;87.95;79.88;;;7.50;81.50;;;;;;12607603;28;20068;-77
2024/01/15 18:34:30;;;;;;;127.10;117.03;;;7.30;81.70;;;;;;12607004;28;20062;-77
2024/01/15 18:40:34;;;;;;;116.78;106.55;;;7.40;81.90;;;;;;12606937;28;20033;-76
2024/01/15 18:46:37;;;;;;;88.68;79.90;;;7.40;81.50;;;;;;12589540;28;20047;-77
2024/01/15 18:52:39;;;;;;;96.38;87.57;;;7.20;81.20;;;;;;12588078;28;20036;-76
2024/01/15 18:58:42;;;;;;;63.38;54.10;;;7.20;80.90;;;;;;12587855;28;20029;-76
2024/01/15 19:04:45;;;;;;;66.20;59.60;;;7.20;80.70;;;;;;12587706;28;20032;-77
2024/01/15 19:10:48;;;;;;;83.10;75.32;;;6.90;81.20;;;;;;12587369;28;20051;-77
2024/01/15 19:16:50;;;;;;;59.10;52.75;;;7.00;82.00;;;;;;12587009;28;20441;-77
2024/01/15 19:22:51;;;;;;;62.80;55.92;;;7.20;82.00;;;;;;12604684;28;20043;-77
2024/01/15 19:28:53;;;;;;;84.65;76.05;;;7.10;81.50;;;;;;12604849;28;20041;-77
2024/01/15 19:34:55;;;;;;;80.95;73.03;;;7.10;81.10;;;;;;12586254;28;20028;-77
2024/01/15 19:40:56;;;;;;;80.35;65.18;;;7.10;80.90;;;;;;12603856;28;20326;-77
2024/01/15 19:46:58;;;;;;;62.90;54.45;;;6.90;80.60;;;;;;12604407;28;20310;-76
2024/01/15 19:52:59;;;;;;;65.82;58.65;;;6.90;81.00;;;;;;12603426;28;20360;-74
2024/01/15 19:59:01;;;;;;;64.55;56.03;;;7.00;81.90;;;;;;12586041;28;20341;-74
2024/01/15 20:05:05;;;;;;;119.22;85.32;;;6.90;81.60;;;;;;12607092;28;20043;-74
2024/01/15 20:11:07;;;;;;;91.45;75.32;;;6.70;81.40;;;;;;12602306;28;20032;-74
2024/01/15 20:17:09;;;;;;;92.90;78.03;;;6.70;81.20;;;;;;12620494;28;20039;-74
2024/01/15 20:23:11;;;;;;;83.65;67.15;;;6.70;80.90;;;;;;12601994;28;20028;-74
2024/01/15 20:29:13;;;;;;;78.63;60.50;;;6.70;80.70;;;;;;12619598;28;20464;-74
2024/01/15 20:35:14;;;;;;;87.45;69.68;;;6.70;80.90;;;;;;12585228;28;20105;-74
2024/01/15 20:41:16;;;;;;;83.38;65.38;;;6.40;80.70;;;;;;12619218;28;20459;-74
2024/01/15 20:47:18;;;;;;;65.15;55.55;;;6.20;81.30;;;;;;12619194;28;20029;-74
2024/01/15 20:53:20;;;;;;;80.03;58.08;;;6.30;81.00;;;;;;12619055;28;20444;-74
2024/01/15 20:59:23;;;;;;;61.58;49.28;;;5.90;80.80;;;;;;12618937;28;20032;-73
2024/01/15 21:05:24;;;;;;;63.40;52.58;;;5.50;81.80;;;;;;12601158;28;20042;-74
2024/01/15 21:11:26;;;;;;;78.63;71.07;;;5.70;81.80;;;;;;12600956;28;20047;-74
2024/01/15 21:17:28;;;;;;;65.95;52.67;;;5.70;81.30;;;;;;12615014;28;20039;-74
2024/01/15 21:23:31;;;;;;;62.70;47.78;;;5.50;81.90;;;;;;12611153;28;20033;-74
2024/01/15 21:29:41;;;;;;;62.25;52.22;;;5.40;81.50;;;;;;12610332;28;20039;-74
2024/01/15 21:35:43;;;;;;;90.70;81.13;;;5.40;81.90;;;;;;12609977;28;20040;-74
2024/01/15 21:41:45;;;;;;;65.78;57.80;;;5.30;81.60;;;;;;12592056;28;20325;-74
2024/01/15 21:47:46;;;;;;;80.43;64.38;;;5.50;81.80;;;;;;12609620;28;20032;-74
2024/01/15 21:53:48;;;;;;;76.68;65.55;;;5.60;81.50;;;;;;12591518;28;20040;-74
2024/01/15 21:59:50;;;;;;;76.03;66.95;;;5.70;81.10;;;;;;12609145;28;20040;-74
2024/01/15 22:05:52;;;;;;;75.45;67.30;;;5.50;80.90;;;;;;12608772;28;20348;-74
2024/01/15 22:11:53;;;;;;;75.15;67.05;;;5.20;81.60;;;;;;12608498;28;20032;-74
2024/01/15 22:18:10;;;;;;;72.45;65.13;;;5.20;81.50;;;;;;12608160;28;20028;-74
2024/01/15 22:24:12;;;;;;;98.22;73.47;;;5.30;81.40;;;;;;12590167;28;20330;-74
2024/01/15 22:30:14;;;;;;;77.10;60.30;;;5.20;81.80;;;;;;12606522;28;20037;-74
2024/01/15 22:36:16;;;;;;;70.90;62.20;;;5.30;81.70;;;;;;12612612;28;20032;-74
2024/01/15 22:42:18;;;;;;;73.68;57.05;;;5.20;81.40;;;;;;12657192;28;20025;-74
2024/01/15 22:48:20;;;;;;;83.88;75.65;;;5.00;82.00;;;;;;12623781;28;20483;-74
2024/01/15 22:54:22;;;;;;;82.43;74.45;;;5.10;81.90;;;;;;12656705;28;20046;-74
2024/01/15 23:00:23;;;;;;;90.70;81.65;;;5.00;81.80;;;;;;12611266;22;20059;-76
2024/01/15 23:06:26;;;;;;;77.55;65.10;;;5.10;81.70;;;;;;12588658;28;20365;-76
2024/01/15 23:12:27;;;;;;;72.57;62.38;;;5.20;81.40;;;;;;12587804;28;20051;-76
2024/01/15 23:18:30;;;;;;;86.32;68.15;;;5.30;81.30;;;;;;12605263;28;20334;-77
2024/01/15 23:24:32;;;;;;;105.25;94.78;;;5.40;81.30;;;;;;12605112;28;20043;-77
2024/01/15 23:30:34;;;;;;;68.32;60.13;;;5.50;81.70;;;;;;12604918;28;20032;-77
2024/01/15 23:36:35;;;;;;;78.72;60.53;;;5.40;81.50;;;;;;12605375;28;20021;-77
2024/01/15 23:42:37;;;;;;;93.82;82.95;;;5.30;81.60;;;;;;12604194;28;20032;-76
2024/01/15 23:55:08;;;;;;;104.15;93.07;;;5.30;82.00;;;;;;12604150;28;20106;-77
